sensor_id;sensor_type;location;lat;lon;timestamp;P1;durP1;ratioP1;P2;durP2;ratioP2
1460;SDS011;724;49.910;12.530;2023-04-12T00:01:29;7.50;;;7.10;;
1460;SDS011;724;49.910;12.530;2023-04-12T00:03:56;7.70;;;7.30;;
1460;SDS011;724;49.910;12.530;2023-04-12T00:06:24;7.57;;;7.18;;
1460;SDS011;724;49.910;12.530;2023-04-12T00:08:56;7.50;;;7.10;;
1460;SDS011;724;49.910;12.530;2023-04-12T00:11:23;7.40;;;7.00;;
1460;SDS011;724;49.910;12.530;2023-04-12T00:13:50;7.43;;;7.03;;
1460;SDS011;724;49.910;12.530;2023-04-12T00:16:18;6.68;;;6.28;;
1460;SDS011;724;49.910;12.530;2023-04-12T00:18:45;7.13;;;6.72;;
1460;SDS011;724;49.910;12.530;2023-04-12T00:21:12;6.82;;;6.43;;
1460;SDS011;724;49.910;12.530;2023-04-12T00:23:43;6.85;;;6.45;;
1460;SDS011;724;49.910;12.530;2023-04-12T00:26:11;6.90;;;6.50;;
1460;SDS011;724;49.910;12.530;2023-04-12T00:28:38;7.30;;;6.90;;
1460;SDS011;724;49.910;12.530;2023-04-12T00:31:05;7.00;;;6.60;;
1460;SDS011;724;49.910;12.530;2023-04-12T00:33:33;6.90;;;6.50;;
1460;SDS011;724;49.910;12.530;2023-04-12T00:36:00;6.70;;;6.30;;
1460;SDS011;724;49.910;12.530;2023-04-12T00:38:27;6.15;;;5.85;;
1460;SDS011;724;49.910;12.530;2023-04-12T00:40:54;6.68;;;6.28;;
1460;SDS011;724;49.910;12.530;2023-04-12T00:43:20;6.70;;;6.30;;
1460;SDS011;724;49.910;12.530;2023-04-12T00:45:51;6.90;;;6.50;;
1460;SDS011;724;49.910;12.530;2023-04-12T00:48:20;7.10;;;6.70;;
1460;SDS011;724;49.910;12.530;2023-04-12T00:50:48;7.32;;;6.93;;
1460;SDS011;724;49.910;12.530;2023-04-12T00:53:15;7.30;;;6.90;;
1460;SDS011;724;49.910;12.530;2023-04-12T00:55:46;7.30;;;6.90;;
1460;SDS011;724;49.910;12.530;2023-04-12T00:58:15;7.40;;;7.00;;
1460;SDS011;724;49.910;12.530;2023-04-12T01:00:43;7.65;;;7.25;;
1460;SDS011;724;49.910;12.530;2023-04-12T01:03:17;7.80;;;7.40;;
1460;SDS011;724;49.910;12.530;2023-04-12T01:05:51;7.50;;;7.10;;
1460;SDS011;724;49.910;12.530;2023-04-12T01:08:31;7.30;;;6.90;;
1460;SDS011;724;49.910;12.530;2023-04-12T01:11:10;7.10;;;6.70;;
1460;SDS011;724;49.910;12.530;2023-04-12T01:13:40;7.50;;;7.10;;
1460;SDS011;724;49.910;12.530;2023-04-12T01:16:12;7.35;;;6.95;;
1460;SDS011;724;49.910;12.530;2023-04-12T01:18:44;7.80;;;7.40;;
1460;SDS011;724;49.910;12.530;2023-04-12T01:21:18;7.70;;;7.30;;
1460;SDS011;724;49.910;12.530;2023-04-12T01:24:10;8.00;;;7.60;;
1460;SDS011;724;49.910;12.530;2023-04-12T01:26:48;8.20;;;7.80;;
1460;SDS011;724;49.910;12.530;2023-04-12T01:29:18;8.00;;;7.60;;
1460;SDS011;724;49.910;12.530;2023-04-12T01:31:48;7.55;;;7.15;;
1460;SDS011;724;49.910;12.530;2023-04-12T01:34:17;7.90;;;7.50;;
1460;SDS011;724;49.910;12.530;2023-04-12T01:36:45;8.10;;;7.70;;
1460;SDS011;724;49.910;12.530;2023-04-12T01:39:13;8.10;;;7.70;;
1460;SDS011;724;49.910;12.530;2023-04-12T01:41:40;8.00;;;7.60;;
1460;SDS011;724;49.910;12.530;2023-04-12T01:44:11;7.80;;;7.40;;
1460;SDS011;724;49.910;12.530;2023-04-12T01:46:40;8.10;;;7.70;;
1460;SDS011;724;49.910;12.530;2023-04-12T01:49:08;8.23;;;7.82;;
1460;SDS011;724;49.910;12.530;2023-04-12T01:51:38;7.85;;;7.45;;
1460;SDS011;724;49.910;12.530;2023-04-12T01:54:16;7.50;;;7.10;;
1460;SDS011;724;49.910;12.530;2023-04-12T01:56:45;7.60;;;7.20;;
1460;SDS011;724;49.910;12.530;2023-04-12T01:59:15;7.40;;;7.00;;
1460;SDS011;724;49.910;12.530;2023-04-12T02:01:45;7.40;;;7.00;;
1460;SDS011;724;49.910;12.530;2023-04-12T02:04:12;7.20;;;6.80;;
1460;SDS011;724;49.910;12.530;2023-04-12T02:06:40;7.05;;;6.65;;
1460;SDS011;724;49.910;12.530;2023-04-12T02:09:08;7.00;;;6.60;;
1460;SDS011;724;49.910;12.530;2023-04-12T02:11:35;6.50;;;6.10;;
1460;SDS011;724;49.910;12.530;2023-04-12T02:14:02;6.93;;;6.53;;
1460;SDS011;724;49.910;12.530;2023-04-12T02:16:30;7.60;;;7.20;;
1460;SDS011;724;49.910;12.530;2023-04-12T02:18:59;7.75;;;7.35;;
1460;SDS011;724;49.910;12.530;2023-04-12T02:21:26;7.90;;;7.50;;
1460;SDS011;724;49.910;12.530;2023-04-12T02:23:52;8.00;;;7.60;;
1460;SDS011;724;49.910;12.530;2023-04-12T02:26:19;8.10;;;7.70;;
1460;SDS011;724;49.910;12.530;2023-04-12T02:28:47;8.20;;;7.80;;
1460;SDS011;724;49.910;12.530;2023-04-12T02:31:14;8.05;;;7.65;;
1460;SDS011;724;49.910;12.530;2023-04-12T02:33:40;7.60;;;7.20;;
1460;SDS011;724;49.910;12.530;2023-04-12T02:36:09;7.60;;;7.20;;
1460;SDS011;724;49.910;12.530;2023-04-12T02:38:36;7.30;;;6.90;;
1460;SDS011;724;49.910;12.530;2023-04-12T02:41:03;7.95;;;7.55;;
1460;SDS011;724;49.910;12.530;2023-04-12T02:43:31;7.47;;;7.07;;
1460;SDS011;724;49.910;12.530;2023-04-12T02:45:58;7.60;;;7.20;;
1460;SDS011;724;49.910;12.530;2023-04-12T02:48:24;7.80;;;7.40;;
1460;SDS011;724;49.910;12.530;2023-04-12T02:50:51;7.40;;;7.00;;
1460;SDS011;724;49.910;12.530;2023-04-12T02:53:19;8.13;;;7.72;;
1460;SDS011;724;49.910;12.530;2023-04-12T02:55:46;8.20;;;7.80;;
1460;SDS011;724;49.910;12.530;2023-04-12T02:58:13;8.60;;;8.10;;
1460;SDS011;724;49.910;12.530;2023-04-12T03:00:40;8.50;;;8.00;;
1460;SDS011;724;49.910;12.530;2023-04-12T03:03:07;8.80;;;8.30;;
1460;SDS011;724;49.910;12.530;2023-04-12T03:05:34;8.60;;;8.10;;
1460;SDS011;724;49.910;12.530;2023-04-12T03:08:02;8.60;;;8.10;;
1460;SDS011;724;49.910;12.530;2023-04-12T03:10:30;8.70;;;8.20;;
1460;SDS011;724;49.910;12.530;2023-04-12T03:12:57;9.40;;;8.90;;
1460;SDS011;724;49.910;12.530;2023-04-12T03:15:23;9.55;;;9.05;;
1460;SDS011;724;49.910;12.530;2023-04-12T03:17:52;9.80;;;9.30;;
1460;SDS011;724;49.910;12.530;2023-04-12T03:20:18;9.60;;;9.10;;
1460;SDS011;724;49.910;12.530;2023-04-12T03:22:48;9.90;;;9.40;;
1460;SDS011;724;49.910;12.530;2023-04-12T03:25:15;9.70;;;9.20;;
1460;SDS011;724;49.910;12.530;2023-04-12T03:27:44;9.50;;;9.00;;
1460;SDS011;724;49.910;12.530;2023-04-12T03:30:11;9.10;;;8.60;;
1460;SDS011;724;49.910;12.530;2023-04-12T03:32:39;8.10;;;7.70;;
1460;SDS011;724;49.910;12.530;2023-04-12T03:35:07;8.80;;;8.30;;
1460;SDS011;724;49.910;12.530;2023-04-12T03:37:34;8.90;;;8.40;;
1460;SDS011;724;49.910;12.530;2023-04-12T03:40:01;8.57;;;8.07;;
1460;SDS011;724;49.910;12.530;2023-04-12T03:42:30;9.00;;;8.50;;
1460;SDS011;724;49.910;12.530;2023-04-12T03:44:58;8.80;;;8.30;;
1460;SDS011;724;49.910;12.530;2023-04-12T03:47:25;9.20;;;8.70;;
1460;SDS011;724;49.910;12.530;2023-04-12T03:49:53;8.90;;;8.40;;
1460;SDS011;724;49.910;12.530;2023-04-12T03:52:20;8.90;;;8.40;;
1460;SDS011;724;49.910;12.530;2023-04-12T03:54:47;9.10;;;8.60;;
1460;SDS011;724;49.910;12.530;2023-04-12T03:57:13;9.30;;;8.80;;
1460;SDS011;724;49.910;12.530;2023-04-12T03:59:40;9.23;;;8.73;;
1460;SDS011;724;49.910;12.530;2023-04-12T04:02:09;9.15;;;8.65;;
1460;SDS011;724;49.910;12.530;2023-04-12T04:04:36;9.50;;;9.00;;
1460;SDS011;724;49.910;12.530;2023-04-12T04:07:03;10.10;;;9.60;;
1460;SDS011;724;49.910;12.530;2023-04-12T04:09:30;10.07;;;9.57;;
1460;SDS011;724;49.910;12.530;2023-04-12T04:11:58;9.23;;;8.73;;
1460;SDS011;724;49.910;12.530;2023-04-12T04:14:25;9.30;;;8.80;;
1460;SDS011;724;49.910;12.530;2023-04-12T04:16:52;9.60;;;9.10;;
1460;SDS011;724;49.910;12.530;2023-04-12T04:19:20;10.00;;;9.50;;
1460;SDS011;724;49.910;12.530;2023-04-12T04:21:47;9.95;;;9.45;;
1460;SDS011;724;49.910;12.530;2023-04-12T04:24:15;9.57;;;9.07;;
1460;SDS011;724;49.910;12.530;2023-04-12T04:26:43;8.80;;;8.30;;
1460;SDS011;724;49.910;12.530;2023-04-12T04:29:10;8.57;;;8.07;;
1460;SDS011;724;49.910;12.530;2023-04-12T04:31:37;7.90;;;7.50;;
1460;SDS011;724;49.910;12.530;2023-04-12T04:34:03;8.50;;;8.00;;
1460;SDS011;724;49.910;12.530;2023-04-12T04:36:33;8.30;;;7.90;;
1460;SDS011;724;49.910;12.530;2023-04-12T04:39:02;8.20;;;7.80;;
1460;SDS011;724;49.910;12.530;2023-04-12T04:41:29;8.20;;;7.80;;
1460;SDS011;724;49.910;12.530;2023-04-12T04:43:58;8.57;;;8.07;;
1460;SDS011;724;49.910;12.530;2023-04-12T04:46:25;9.20;;;8.70;;
1460;SDS011;724;49.910;12.530;2023-04-12T04:48:54;9.27;;;8.77;;
1460;SDS011;724;49.910;12.530;2023-04-12T04:51:22;9.75;;;9.25;;
1460;SDS011;724;49.910;12.530;2023-04-12T04:53:51;9.85;;;9.35;;
1460;SDS011;724;49.910;12.530;2023-04-12T04:56:18;10.10;;;9.60;;
1460;SDS011;724;49.910;12.530;2023-04-12T04:58:47;10.20;;;9.70;;
1460;SDS011;724;49.910;12.530;2023-04-12T05:01:13;10.10;;;9.60;;
1460;SDS011;724;49.910;12.530;2023-04-12T05:03:40;10.30;;;9.80;;
1460;SDS011;724;49.910;12.530;2023-04-12T05:06:08;10.00;;;9.50;;
1460;SDS011;724;49.910;12.530;2023-04-12T05:08:35;9.80;;;9.30;;
1460;SDS011;724;49.910;12.530;2023-04-12T05:11:04;9.98;;;9.48;;
1460;SDS011;724;49.910;12.530;2023-04-12T05:13:31;9.93;;;9.43;;
1460;SDS011;724;49.910;12.530;2023-04-12T05:15:57;9.75;;;9.25;;
1460;SDS011;724;49.910;12.530;2023-04-12T05:18:24;9.20;;;8.70;;
1460;SDS011;724;49.910;12.530;2023-04-12T05:20:51;8.90;;;8.40;;
1460;SDS011;724;49.910;12.530;2023-04-12T05:23:18;8.60;;;8.10;;
1460;SDS011;724;49.910;12.530;2023-04-12T05:25:45;8.60;;;8.10;;
1460;SDS011;724;49.910;12.530;2023-04-12T05:28:15;8.95;;;8.45;;
1460;SDS011;724;49.910;12.530;2023-04-12T05:30:42;7.50;;;7.10;;
1460;SDS011;724;49.910;12.530;2023-04-12T05:33:09;7.80;;;7.40;;
1460;SDS011;724;49.910;12.530;2023-04-12T05:35:36;7.63;;;7.22;;
1460;SDS011;724;49.910;12.530;2023-04-12T05:38:03;8.10;;;7.70;;
1460;SDS011;724;49.910;12.530;2023-04-12T05:40:30;7.60;;;7.20;;
1460;SDS011;724;49.910;12.530;2023-04-12T05:42:57;7.20;;;6.80;;
1460;SDS011;724;49.910;12.530;2023-04-12T05:45:26;7.00;;;6.60;;
1460;SDS011;724;49.910;12.530;2023-04-12T05:47:53;6.80;;;6.40;;
1460;SDS011;724;49.910;12.530;2023-04-12T05:53:14;6.70;;;6.30;;
1460;SDS011;724;49.910;12.530;2023-04-12T05:55:41;6.70;;;6.30;;
1460;SDS011;724;49.910;12.530;2023-04-12T05:58:08;7.00;;;6.60;;
1460;SDS011;724;49.910;12.530;2023-04-12T06:00:37;7.70;;;7.30;;
1460;SDS011;724;49.910;12.530;2023-04-12T06:03:06;8.30;;;7.90;;
1460;SDS011;724;49.910;12.530;2023-04-12T06:05:35;8.82;;;8.32;;
1460;SDS011;724;49.910;12.530;2023-04-12T06:08:18;8.80;;;8.30;;
1460;SDS011;724;49.910;12.530;2023-04-12T06:10:45;8.80;;;8.30;;
1460;SDS011;724;49.910;12.530;2023-04-12T06:13:18;8.90;;;8.40;;
1460;SDS011;724;49.910;12.530;2023-04-12T06:15:47;8.60;;;8.10;;
1460;SDS011;724;49.910;12.530;2023-04-12T06:18:14;8.68;;;8.18;;
1460;SDS011;724;49.910;12.530;2023-04-12T06:20:41;8.50;;;8.00;;
1460;SDS011;724;49.910;12.530;2023-04-12T06:23:08;8.50;;;8.00;;
1460;SDS011;724;49.910;12.530;2023-04-12T06:25:34;7.80;;;7.40;;
1460;SDS011;724;49.910;12.530;2023-04-12T06:28:02;7.70;;;7.30;;
1460;SDS011;724;49.910;12.530;2023-04-12T06:30:29;8.00;;;7.60;;
1460;SDS011;724;49.910;12.530;2023-04-12T06:32:58;7.70;;;7.30;;
1460;SDS011;724;49.910;12.530;2023-04-12T06:35:25;7.80;;;7.40;;
1460;SDS011;724;49.910;12.530;2023-04-12T06:37:52;7.20;;;6.80;;
1460;SDS011;724;49.910;12.530;2023-04-12T06:40:19;6.70;;;6.30;;
1460;SDS011;724;49.910;12.530;2023-04-12T06:42:45;6.53;;;6.13;;
1460;SDS011;724;49.910;12.530;2023-04-12T06:45:12;7.75;;;7.35;;
1460;SDS011;724;49.910;12.530;2023-04-12T06:47:39;8.80;;;8.30;;
1460;SDS011;724;49.910;12.530;2023-04-12T06:50:08;9.60;;;9.10;;
1460;SDS011;724;49.910;12.530;2023-04-12T06:52:35;10.20;;;9.70;;
1460;SDS011;724;49.910;12.530;2023-04-12T06:55:02;11.00;;;10.40;;
1460;SDS011;724;49.910;12.530;2023-04-12T06:57:29;11.30;;;10.70;;
1460;SDS011;724;49.910;12.530;2023-04-12T06:59:56;12.20;;;11.60;;
1460;SDS011;724;49.910;12.530;2023-04-12T07:02:22;13.00;;;12.30;;
1460;SDS011;724;49.910;12.530;2023-04-12T07:04:50;13.60;;;12.90;;
1460;SDS011;724;49.910;12.530;2023-04-12T07:07:19;14.05;;;13.35;;
1460;SDS011;724;49.910;12.530;2023-04-12T07:09:46;13.90;;;13.20;;
1460;SDS011;724;49.910;12.530;2023-04-12T07:12:16;14.60;;;13.90;;
1460;SDS011;724;49.910;12.530;2023-04-12T07:14:42;14.57;;;13.88;;
1460;SDS011;724;49.910;12.530;2023-04-12T07:17:09;15.02;;;14.23;;
1460;SDS011;724;49.910;12.530;2023-04-12T07:19:36;14.85;;;14.05;;
1460;SDS011;724;49.910;12.530;2023-04-12T07:22:03;14.80;;;14.00;;
1460;SDS011;724;49.910;12.530;2023-04-12T07:24:31;14.50;;;13.80;;
1460;SDS011;724;49.910;12.530;2023-04-12T07:26:58;14.18;;;13.48;;
1460;SDS011;724;49.910;12.530;2023-04-12T07:29:25;14.50;;;13.80;;
1460;SDS011;724;49.910;12.530;2023-04-12T07:31:52;14.30;;;13.60;;
1460;SDS011;724;49.910;12.530;2023-04-12T07:34:18;13.70;;;13.00;;
1460;SDS011;724;49.910;12.530;2023-04-12T07:36:45;14.10;;;13.40;;
1460;SDS011;724;49.910;12.530;2023-04-12T07:39:12;13.80;;;13.10;;
1460;SDS011;724;49.910;12.530;2023-04-12T07:41:40;13.77;;;13.07;;
1460;SDS011;724;49.910;12.530;2023-04-12T07:44:10;13.85;;;13.15;;
1460;SDS011;724;49.910;12.530;2023-04-12T07:46:37;13.60;;;12.90;;
1460;SDS011;724;49.910;12.530;2023-04-12T07:49:05;13.60;;;12.90;;
1460;SDS011;724;49.910;12.530;2023-04-12T07:51:32;13.50;;;12.80;;
1460;SDS011;724;49.910;12.530;2023-04-12T07:53:59;13.70;;;13.00;;
1460;SDS011;724;49.910;12.530;2023-04-12T07:56:26;13.20;;;12.50;;
1460;SDS011;724;49.910;12.530;2023-04-12T07:58:54;13.20;;;12.50;;
1460;SDS011;724;49.910;12.530;2023-04-12T08:01:20;12.80;;;12.10;;
1460;SDS011;724;49.910;12.530;2023-04-12T08:03:47;12.95;;;12.25;;
1460;SDS011;724;49.910;12.530;2023-04-12T08:06:14;12.80;;;12.10;;
1460;SDS011;724;49.910;12.530;2023-04-12T08:08:42;12.70;;;12.00;;
1460;SDS011;724;49.910;12.530;2023-04-12T08:11:12;12.80;;;12.10;;
1460;SDS011;724;49.910;12.530;2023-04-12T08:13:39;12.50;;;11.90;;
1460;SDS011;724;49.910;12.530;2023-04-12T08:16:08;12.38;;;11.77;;
1460;SDS011;724;49.910;12.530;2023-04-12T08:18:36;13.40;;;12.70;;
1460;SDS011;724;49.910;12.530;2023-04-12T08:21:03;13.00;;;12.30;;
1460;SDS011;724;49.910;12.530;2023-04-12T08:23:30;13.60;;;12.90;;
1460;SDS011;724;49.910;12.530;2023-04-12T08:25:57;13.10;;;12.40;;
1460;SDS011;724;49.910;12.530;2023-04-12T08:28:27;13.10;;;12.40;;
1460;SDS011;724;49.910;12.530;2023-04-12T08:30:54;12.32;;;11.73;;
1460;SDS011;724;49.910;12.530;2023-04-12T08:33:24;12.30;;;11.70;;
1460;SDS011;724;49.910;12.530;2023-04-12T08:35:51;12.20;;;11.60;;
1460;SDS011;724;49.910;12.530;2023-04-12T08:38:18;12.75;;;12.05;;
1460;SDS011;724;49.910;12.530;2023-04-12T08:40:45;12.70;;;12.00;;
1460;SDS011;724;49.910;12.530;2023-04-12T08:43:12;12.70;;;12.00;;
1460;SDS011;724;49.910;12.530;2023-04-12T08:45:40;13.02;;;12.32;;
1460;SDS011;724;49.910;12.530;2023-04-12T08:48:07;13.00;;;12.30;;
1460;SDS011;724;49.910;12.530;2023-04-12T08:50:36;12.20;;;11.60;;
1460;SDS011;724;49.910;12.530;2023-04-12T08:53:03;12.30;;;11.70;;
1460;SDS011;724;49.910;12.530;2023-04-12T08:55:30;12.80;;;12.10;;
1460;SDS011;724;49.910;12.530;2023-04-12T08:57:56;13.10;;;12.40;;
1460;SDS011;724;49.910;12.530;2023-04-12T09:00:24;12.77;;;12.07;;
1460;SDS011;724;49.910;12.530;2023-04-12T09:02:52;13.25;;;12.55;;
1460;SDS011;724;49.910;12.530;2023-04-12T09:05:18;12.40;;;11.80;;
1460;SDS011;724;49.910;12.530;2023-04-12T09:07:48;12.40;;;11.80;;
1460;SDS011;724;49.910;12.530;2023-04-12T09:10:28;12.45;;;11.85;;
1460;SDS011;724;49.910;12.530;2023-04-12T09:12:57;12.50;;;11.90;;
1460;SDS011;724;49.910;12.530;2023-04-12T09:15:24;12.85;;;12.15;;
1460;SDS011;724;49.910;12.530;2023-04-12T09:18:01;11.80;;;11.20;;
1460;SDS011;724;49.910;12.530;2023-04-12T09:20:30;11.30;;;10.70;;
1460;SDS011;724;49.910;12.530;2023-04-12T09:22:58;12.70;;;12.00;;
1460;SDS011;724;49.910;12.530;2023-04-12T09:25:36;13.00;;;12.30;;
1460;SDS011;724;49.910;12.530;2023-04-12T09:28:16;13.70;;;13.00;;
1460;SDS011;724;49.910;12.530;2023-04-12T09:30:47;13.50;;;12.80;;
1460;SDS011;724;49.910;12.530;2023-04-12T09:33:17;13.00;;;12.30;;
1460;SDS011;724;49.910;12.530;2023-04-12T09:35:44;12.30;;;11.70;;
1460;SDS011;724;49.910;12.530;2023-04-12T09:38:13;12.40;;;11.80;;
1460;SDS011;724;49.910;12.530;2023-04-12T09:40:40;13.48;;;12.77;;
1460;SDS011;724;49.910;12.530;2023-04-12T09:43:07;13.05;;;12.35;;
1460;SDS011;724;49.910;12.530;2023-04-12T09:45:35;12.80;;;12.10;;
1460;SDS011;724;49.910;12.530;2023-04-12T09:48:03;12.77;;;12.07;;
1460;SDS011;724;49.910;12.530;2023-04-12T09:50:32;12.85;;;12.15;;
1460;SDS011;724;49.910;12.530;2023-04-12T09:52:59;12.80;;;12.10;;
1460;SDS011;724;49.910;12.530;2023-04-12T09:55:29;12.50;;;11.90;;
1460;SDS011;724;49.910;12.530;2023-04-12T09:57:58;12.30;;;11.70;;
1460;SDS011;724;49.910;12.530;2023-04-12T10:00:29;11.20;;;10.60;;
1460;SDS011;724;49.910;12.530;2023-04-12T10:02:58;10.90;;;10.30;;
1460;SDS011;724;49.910;12.530;2023-04-12T10:05:25;10.90;;;10.30;;
1460;SDS011;724;49.910;12.530;2023-04-12T10:07:52;10.30;;;9.80;;
1460;SDS011;724;49.910;12.530;2023-04-12T10:10:19;9.30;;;8.80;;
1460;SDS011;724;49.910;12.530;2023-04-12T10:12:48;9.60;;;9.10;;
1460;SDS011;724;49.910;12.530;2023-04-12T10:15:21;8.70;;;8.20;;
1460;SDS011;724;49.910;12.530;2023-04-12T10:17:48;8.15;;;7.75;;
1460;SDS011;724;49.910;12.530;2023-04-12T10:20:19;7.30;;;6.90;;
1460;SDS011;724;49.910;12.530;2023-04-12T10:22:47;7.13;;;6.72;;
1460;SDS011;724;49.910;12.530;2023-04-12T10:25:15;7.20;;;6.80;;
1460;SDS011;724;49.910;12.530;2023-04-12T10:27:47;7.10;;;6.70;;
1460;SDS011;724;49.910;12.530;2023-04-12T10:30:21;7.00;;;6.60;;
1460;SDS011;724;49.910;12.530;2023-04-12T10:32:50;6.80;;;6.40;;
1460;SDS011;724;49.910;12.530;2023-04-12T10:35:54;6.70;;;6.30;;
1460;SDS011;724;49.910;12.530;2023-04-12T10:38:24;7.30;;;6.90;;
1460;SDS011;724;49.910;12.530;2023-04-12T10:41:14;7.80;;;7.40;;
1460;SDS011;724;49.910;12.530;2023-04-12T10:43:47;8.65;;;8.15;;
1460;SDS011;724;49.910;12.530;2023-04-12T10:49:16;7.90;;;7.50;;
1460;SDS011;724;49.910;12.530;2023-04-12T10:54:41;7.50;;;7.10;;
1460;SDS011;724;49.910;12.530;2023-04-12T11:00:09;6.90;;;6.50;;
1460;SDS011;724;49.910;12.530;2023-04-12T11:08:25;6.88;;;6.47;;
1460;SDS011;724;49.910;12.530;2023-04-12T11:11:00;6.00;;;5.70;;
1460;SDS011;724;49.910;12.530;2023-04-12T11:13:28;5.43;;;5.13;;
1460;SDS011;724;49.910;12.530;2023-04-12T11:16:01;4.90;;;4.60;;
1460;SDS011;724;49.910;12.530;2023-04-12T11:18:32;4.50;;;4.20;;
1460;SDS011;724;49.910;12.530;2023-04-12T11:20:59;5.25;;;4.95;;
1460;SDS011;724;49.910;12.530;2023-04-12T11:23:28;5.40;;;5.10;;
1460;SDS011;724;49.910;12.530;2023-04-12T11:25:56;5.18;;;4.88;;
1460;SDS011;724;49.910;12.530;2023-04-12T11:28:24;5.00;;;4.70;;
1460;SDS011;724;49.910;12.530;2023-04-12T11:30:51;4.60;;;4.30;;
1460;SDS011;724;49.910;12.530;2023-04-12T11:33:31;4.07;;;3.88;;
1460;SDS011;724;49.910;12.530;2023-04-12T11:36:04;4.47;;;4.18;;
1460;SDS011;724;49.910;12.530;2023-04-12T11:38:33;3.40;;;3.20;;
1460;SDS011;724;49.910;12.530;2023-04-12T11:41:01;3.80;;;3.60;;
1460;SDS011;724;49.910;12.530;2023-04-12T11:43:30;3.40;;;3.20;;
1460;SDS011;724;49.910;12.530;2023-04-12T11:45:57;3.00;;;2.80;;
1460;SDS011;724;49.910;12.530;2023-04-12T11:48:24;2.90;;;2.70;;
1460;SDS011;724;49.910;12.530;2023-04-12T11:50:52;2.80;;;2.60;;
1460;SDS011;724;49.910;12.530;2023-04-12T11:53:25;3.40;;;3.20;;
1460;SDS011;724;49.910;12.530;2023-04-12T11:55:53;3.40;;;3.20;;
1460;SDS011;724;49.910;12.530;2023-04-12T11:58:22;4.10;;;3.90;;
1460;SDS011;724;49.910;12.530;2023-04-12T12:00:51;2.70;;;2.50;;
1460;SDS011;724;49.910;12.530;2023-04-12T12:03:18;2.65;;;2.45;;
1460;SDS011;724;49.910;12.530;2023-04-12T12:05:45;3.40;;;3.20;;
1460;SDS011;724;49.910;12.530;2023-04-12T12:08:14;2.78;;;2.58;;
1460;SDS011;724;49.910;12.530;2023-04-12T12:10:41;2.72;;;2.53;;
1460;SDS011;724;49.910;12.530;2023-04-12T12:13:08;3.00;;;2.80;;
1460;SDS011;724;49.910;12.530;2023-04-12T12:15:36;3.20;;;3.00;;
1460;SDS011;724;49.910;12.530;2023-04-12T12:18:05;2.90;;;2.70;;
1460;SDS011;724;49.910;12.530;2023-04-12T12:20:38;4.20;;;3.95;;
1460;SDS011;724;49.910;12.530;2023-04-12T12:23:06;4.00;;;3.80;;
1460;SDS011;724;49.910;12.530;2023-04-12T12:25:34;3.33;;;3.13;;
1460;SDS011;724;49.910;12.530;2023-04-12T12:28:01;3.40;;;3.20;;
1460;SDS011;724;49.910;12.530;2023-04-12T12:30:36;3.30;;;3.10;;
1460;SDS011;724;49.910;12.530;2023-04-12T12:33:10;3.80;;;3.60;;
1460;SDS011;724;49.910;12.530;2023-04-12T12:35:46;4.70;;;4.40;;
1460;SDS011;724;49.910;12.530;2023-04-12T12:38:13;5.22;;;4.93;;
1460;SDS011;724;49.910;12.530;2023-04-12T12:40:43;5.00;;;4.70;;
1460;SDS011;724;49.910;12.530;2023-04-12T12:43:21;5.30;;;5.00;;
1460;SDS011;724;49.910;12.530;2023-04-12T12:46:01;5.10;;;4.80;;
1460;SDS011;724;49.910;12.530;2023-04-12T12:48:38;5.20;;;4.90;;
1460;SDS011;724;49.910;12.530;2023-04-12T12:51:08;4.93;;;4.63;;
1460;SDS011;724;49.910;12.530;2023-04-12T12:53:37;4.50;;;4.20;;
1460;SDS011;724;49.910;12.530;2023-04-12T12:56:07;4.80;;;4.50;;
1460;SDS011;724;49.910;12.530;2023-04-12T12:58:35;4.50;;;4.20;;
1460;SDS011;724;49.910;12.530;2023-04-12T13:01:02;5.50;;;5.20;;
1460;SDS011;724;49.910;12.530;2023-04-12T13:03:29;4.82;;;4.53;;
1460;SDS011;724;49.910;12.530;2023-04-12T13:05:59;4.40;;;4.10;;
1460;SDS011;724;49.910;12.530;2023-04-12T13:08:28;4.30;;;4.00;;
1460;SDS011;724;49.910;12.530;2023-04-12T13:10:59;4.30;;;4.00;;
1460;SDS011;724;49.910;12.530;2023-04-12T13:13:27;4.50;;;4.20;;
1460;SDS011;724;49.910;12.530;2023-04-12T13:15:55;5.40;;;5.10;;
1460;SDS011;724;49.910;12.530;2023-04-12T13:18:25;5.10;;;4.80;;
1460;SDS011;724;49.910;12.530;2023-04-12T13:20:51;5.70;;;5.40;;
1460;SDS011;724;49.910;12.530;2023-04-12T13:23:18;5.82;;;5.53;;
1460;SDS011;724;49.910;12.530;2023-04-12T13:25:45;5.78;;;5.47;;
1460;SDS011;724;49.910;12.530;2023-04-12T13:28:12;5.47;;;5.18;;
1460;SDS011;724;49.910;12.530;2023-04-12T13:30:42;5.97;;;5.68;;
1460;SDS011;724;49.910;12.530;2023-04-12T13:33:09;5.60;;;5.30;;
1460;SDS011;724;49.910;12.530;2023-04-12T13:35:36;5.10;;;4.80;;
1460;SDS011;724;49.910;12.530;2023-04-12T13:38:03;4.80;;;4.50;;
1460;SDS011;724;49.910;12.530;2023-04-12T13:40:30;4.70;;;4.40;;
1460;SDS011;724;49.910;12.530;2023-04-12T13:43:00;4.60;;;4.30;;
1460;SDS011;724;49.910;12.530;2023-04-12T13:45:27;4.40;;;4.10;;
1460;SDS011;724;49.910;12.530;2023-04-12T13:47:55;4.68;;;4.38;;
1460;SDS011;724;49.910;12.530;2023-04-12T13:50:22;3.90;;;3.70;;
1460;SDS011;724;49.910;12.530;2023-04-12T13:52:50;3.88;;;3.67;;
1460;SDS011;724;49.910;12.530;2023-04-12T13:55:16;2.80;;;2.60;;
1460;SDS011;724;49.910;12.530;2023-04-12T13:57:43;2.60;;;2.40;;
1460;SDS011;724;49.910;12.530;2023-04-12T14:00:10;2.58;;;2.38;;
1460;SDS011;724;49.910;12.530;2023-04-12T14:02:38;2.50;;;2.30;;
1460;SDS011;724;49.910;12.530;2023-04-12T14:05:07;2.30;;;2.10;;
1460;SDS011;724;49.910;12.530;2023-04-12T14:07:35;1.90;;;1.80;;
1460;SDS011;724;49.910;12.530;2023-04-12T14:10:02;2.50;;;2.30;;
1460;SDS011;724;49.910;12.530;2023-04-12T14:12:29;2.50;;;2.30;;
1460;SDS011;724;49.910;12.530;2023-04-12T14:14:56;2.35;;;2.15;;
1460;SDS011;724;49.910;12.530;2023-04-12T14:17:22;2.20;;;2.00;;
1460;SDS011;724;49.910;12.530;2023-04-12T14:19:49;2.30;;;2.10;;
1460;SDS011;724;49.910;12.530;2023-04-12T14:22:18;2.58;;;2.38;;
1460;SDS011;724;49.910;12.530;2023-04-12T14:24:44;2.40;;;2.20;;
1460;SDS011;724;49.910;12.530;2023-04-12T14:27:11;2.70;;;2.50;;
1460;SDS011;724;49.910;12.530;2023-04-12T14:29:38;2.50;;;2.30;;
1460;SDS011;724;49.910;12.530;2023-04-12T14:32:05;2.45;;;2.25;;
1460;SDS011;724;49.910;12.530;2023-04-12T14:34:31;2.15;;;1.98;;
1460;SDS011;724;49.910;12.530;2023-04-12T14:36:58;1.60;;;1.50;;
1460;SDS011;724;49.910;12.530;2023-04-12T14:39:26;1.30;;;1.20;;
1460;SDS011;724;49.910;12.530;2023-04-12T14:41:54;1.10;;;1.00;;
1460;SDS011;724;49.910;12.530;2023-04-12T14:44:21;0.90;;;0.80;;
1460;SDS011;724;49.910;12.530;2023-04-12T14:46:48;1.30;;;1.20;;
1460;SDS011;724;49.910;12.530;2023-04-12T14:49:15;1.00;;;0.90;;
1460;SDS011;724;49.910;12.530;2023-04-12T14:51:42;0.90;;;0.80;;
1460;SDS011;724;49.910;12.530;2023-04-12T14:54:09;0.90;;;0.80;;
1460;SDS011;724;49.910;12.530;2023-04-12T14:56:40;0.90;;;0.80;;
1460;SDS011;724;49.910;12.530;2023-04-12T14:59:11;0.90;;;0.80;;
1460;SDS011;724;49.910;12.530;2023-04-12T15:01:38;0.60;;;0.50;;
1460;SDS011;724;49.910;12.530;2023-04-12T15:04:06;0.70;;;0.60;;
1460;SDS011;724;49.910;12.530;2023-04-12T15:06:33;0.65;;;0.55;;
1460;SDS011;724;49.910;12.530;2023-04-12T15:09:06;0.40;;;0.30;;
1460;SDS011;724;49.910;12.530;2023-04-12T15:11:33;0.40;;;0.30;;
1460;SDS011;724;49.910;12.530;2023-04-12T15:14:02;0.35;;;0.25;;
1460;SDS011;724;49.910;12.530;2023-04-12T15:16:30;0.40;;;0.30;;
1460;SDS011;724;49.910;12.530;2023-04-12T15:18:58;0.40;;;0.30;;
1460;SDS011;724;49.910;12.530;2023-04-12T15:21:26;0.40;;;0.30;;
1460;SDS011;724;49.910;12.530;2023-04-12T15:23:52;0.60;;;0.50;;
1460;SDS011;724;49.910;12.530;2023-04-12T17:24:13;0.20;;;0.10;;
1460;SDS011;724;49.910;12.530;2023-04-12T17:26:40;0.20;;;0.10;;
1460;SDS011;724;49.910;12.530;2023-04-12T17:29:07;0.20;;;0.10;;
1460;SDS011;724;49.910;12.530;2023-04-12T17:31:34;0.20;;;0.10;;
1460;SDS011;724;49.910;12.530;2023-04-12T17:34:01;0.20;;;0.10;;